createdAt,value
2018-07-10T00:02:12.163Z,16.90
2018-07-10T00:05:23.296Z,16.90
2018-07-10T00:10:34.281Z,16.90
2018-07-10T00:13:03.650Z,16.90
2018-07-10T00:20:30.332Z,16.90
2018-07-10T00:22:59.761Z,16.90
2018-07-10T00:25:29.016Z,16.90
2018-07-10T00:30:26.924Z,16.80
2018-07-10T00:32:56.132Z,16.80
2018-07-10T00:35:25.535Z,16.80
2018-07-10T00:38:05.588Z,16.90
2018-07-10T00:40:34.954Z,16.90
2018-07-10T00:43:08.093Z,16.80
2018-07-10T00:45:37.404Z,16.90
2018-07-10T00:48:06.820Z,16.90
2018-07-10T00:50:36.360Z,16.90
2018-07-10T00:55:34.370Z,16.90
2018-07-10T00:58:03.948Z,16.90
2018-07-10T01:03:03.776Z,16.90
2018-07-10T01:08:02.077Z,17.00
2018-07-10T01:12:59.953Z,17.10
2018-07-10T01:17:57.920Z,17.00
2018-07-10T01:20:27.107Z,17.00
2018-07-10T01:22:56.344Z,17.00
2018-07-10T01:27:55.515Z,17.00
2018-07-10T01:30:24.788Z,17.00
2018-07-10T01:32:54.052Z,17.00
2018-07-10T01:37:51.881Z,17.00
2018-07-10T01:40:22.012Z,17.00
2018-07-10T01:42:51.199Z,17.00
2018-07-10T01:45:20.439Z,17.00
2018-07-10T01:50:18.476Z,16.90
2018-07-10T01:52:47.588Z,16.90
2018-07-10T01:55:16.728Z,16.80
2018-07-10T02:00:24.016Z,16.80
2018-07-10T02:02:53.261Z,16.80
2018-07-10T02:05:22.667Z,16.80
2018-07-10T02:07:51.926Z,16.80
2018-07-10T02:10:21.289Z,16.80
2018-07-10T02:12:50.560Z,16.80
2018-07-10T02:15:19.825Z,16.80
2018-07-10T02:17:48.959Z,16.80
2018-07-10T02:20:18.274Z,16.80
2018-07-10T02:22:47.740Z,16.80
2018-07-10T02:27:45.658Z,16.70
2018-07-10T02:30:15.115Z,16.70
2018-07-10T02:35:13.476Z,16.70
2018-07-10T02:37:45.953Z,16.70
2018-07-10T02:40:15.189Z,16.70
2018-07-10T02:45:13.108Z,16.70
2018-07-10T02:47:42.412Z,16.80
2018-07-10T02:50:11.716Z,16.80
2018-07-10T02:52:41.755Z,16.70
2018-07-10T02:55:11.128Z,16.70
2018-07-10T02:57:40.488Z,16.70
2018-07-10T03:02:38.571Z,16.60
2018-07-10T03:05:08.022Z,16.60
2018-07-10T03:07:38.227Z,16.60
2018-07-10T03:10:07.518Z,16.60
2018-07-10T03:15:10.956Z,16.50
2018-07-10T03:17:40.359Z,16.50
2018-07-10T03:20:10.844Z,16.50
2018-07-10T03:25:09.509Z,16.40
2018-07-10T03:27:38.791Z,16.40
2018-07-10T03:30:08.292Z,16.40
2018-07-10T03:32:37.565Z,16.40
2018-07-10T03:37:35.448Z,16.40
2018-07-10T03:42:33.417Z,16.40
2018-07-10T03:45:02.780Z,16.40
2018-07-10T03:47:32.028Z,16.40
2018-07-10T03:52:33.592Z,16.30
2018-07-10T03:55:15.009Z,16.30
2018-07-10T03:57:44.316Z,16.30
2018-07-10T04:00:14.660Z,16.40
2018-07-10T04:02:48.244Z,16.40
2018-07-10T04:05:18.714Z,16.40
2018-07-10T04:07:49.165Z,16.40
2018-07-10T04:12:49.559Z,16.50
2018-07-10T04:15:19.204Z,16.50
2018-07-10T04:17:58.675Z,16.50
2018-07-10T04:20:35.767Z,16.60
2018-07-10T04:23:05.148Z,16.60
2018-07-10T04:25:35.572Z,16.60
2018-07-10T04:28:25.549Z,16.70
2018-07-10T04:33:28.788Z,16.80
2018-07-10T04:35:58.096Z,16.80
2018-07-10T04:38:28.949Z,16.80
2018-07-10T04:41:08.656Z,16.80
2018-07-10T04:43:41.375Z,16.90
2018-07-10T04:46:10.617Z,16.90
2018-07-10T04:51:46.489Z,17.00
2018-07-10T04:54:26.528Z,17.00
2018-07-10T04:56:59.156Z,17.10
2018-07-10T04:59:28.152Z,17.20
2018-07-10T05:01:57.303Z,17.30
2018-07-10T05:04:26.307Z,17.40
2018-07-10T05:09:23.868Z,17.60
2018-07-10T05:11:52.912Z,17.60
2018-07-10T05:14:21.908Z,17.70
2018-07-10T05:16:50.964Z,17.70
2018-07-10T05:19:19.944Z,17.80
2018-07-10T05:21:48.965Z,17.80
2018-07-10T05:24:17.984Z,17.90
2018-07-10T05:26:47.013Z,17.90
2018-07-10T05:29:16.008Z,18.00
2018-07-10T05:31:45.045Z,18.10
2018-07-10T05:34:14.032Z,18.20
2018-07-10T05:36:43.089Z,18.30
2018-07-10T05:39:12.110Z,18.40
2018-07-10T05:41:48.285Z,18.60
2018-07-10T05:44:21.065Z,18.70
2018-07-10T05:46:50.400Z,18.90
2018-07-10T05:49:19.840Z,19.00
2018-07-10T05:51:51.109Z,19.20
2018-07-10T05:54:20.804Z,19.30
2018-07-10T05:56:49.890Z,19.50
2018-07-10T05:59:18.854Z,19.60
2018-07-10T06:01:47.871Z,19.90
2018-07-10T06:04:17.919Z,20.10
2018-07-10T06:06:47.766Z,20.20
2018-07-10T06:09:18.097Z,20.20
2018-07-10T06:11:47.346Z,20.20
2018-07-10T06:14:16.256Z,20.10
2018-07-10T06:16:45.516Z,20.10
2018-07-10T06:19:14.584Z,20.20
2018-07-10T06:21:47.960Z,20.20
2018-07-10T06:24:25.936Z,20.40
2018-07-10T06:27:01.968Z,20.40
2018-07-10T06:29:45.348Z,20.50
2018-07-10T06:32:19.305Z,20.50
2018-07-10T06:34:48.815Z,20.60
2018-07-10T06:37:23.959Z,20.60
2018-07-10T06:39:53.888Z,20.70
2018-07-10T06:42:26.288Z,20.70
2018-07-10T06:44:55.328Z,20.80
2018-07-10T06:47:29.448Z,20.80
2018-07-10T06:50:00.059Z,20.90
2018-07-10T06:52:29.273Z,20.90
2018-07-10T06:55:13.110Z,21.00
2018-07-10T06:57:52.263Z,21.00
2018-07-10T07:00:21.312Z,21.10
2018-07-10T07:02:50.298Z,21.30
2018-07-10T07:05:20.399Z,21.40
2018-07-10T07:07:49.406Z,21.60
2018-07-10T07:10:18.413Z,21.80
2018-07-10T07:12:47.521Z,21.90
2018-07-10T07:15:20.582Z,21.90
2018-07-10T07:17:50.764Z,21.90
2018-07-10T07:20:20.471Z,21.90
2018-07-10T07:25:18.539Z,22.20
2018-07-10T07:27:47.521Z,22.40
2018-07-10T07:30:16.458Z,22.50
2018-07-10T07:32:46.376Z,22.70
2018-07-10T07:35:15.274Z,22.80
2018-07-10T07:37:44.252Z,22.90
2018-07-10T07:45:10.924Z,23.20
2018-07-10T07:50:08.360Z,23.40
2018-07-10T07:52:37.571Z,23.40
2018-07-10T07:55:06.508Z,23.50
2018-07-10T07:57:35.508Z,23.60
2018-07-10T08:00:04.493Z,23.80
2018-07-10T08:02:33.520Z,23.90
2018-07-10T08:05:02.500Z,24.00
2018-07-10T08:07:31.536Z,24.20
2018-07-10T08:10:01.216Z,24.30
2018-07-10T08:12:30.968Z,24.40
2018-07-10T08:17:29.627Z,24.70
2018-07-10T08:19:59.689Z,24.70
2018-07-10T08:24:58.173Z,24.80
2018-07-10T08:27:27.268Z,24.90
2018-07-10T08:29:57.297Z,25.00
2018-07-10T08:32:28.422Z,25.10
2018-07-10T08:34:57.457Z,25.20
2018-07-10T08:37:26.456Z,25.40
2018-07-10T08:39:55.448Z,25.50
2018-07-10T08:42:24.435Z,25.60
2018-07-10T08:44:53.941Z,25.70
2018-07-10T08:47:22.928Z,25.80
2018-07-10T08:49:51.984Z,25.70
2018-07-10T08:52:20.944Z,25.80
2018-07-10T08:54:49.987Z,25.90
2018-07-10T09:02:16.912Z,26.10
2018-07-10T09:04:45.877Z,26.10
2018-07-10T09:07:14.902Z,26.20
2018-07-10T09:09:43.860Z,26.30
2018-07-10T09:12:13.199Z,26.50
2018-07-10T09:14:42.452Z,26.60
2018-07-10T09:17:11.472Z,26.60
2018-07-10T09:19:40.696Z,26.80
2018-07-10T09:22:13.549Z,26.90
2018-07-10T09:24:51.475Z,27.00
2018-07-10T09:27:22.010Z,27.10
2018-07-10T09:29:51.254Z,27.10
2018-07-10T09:32:26.064Z,27.30
2018-07-10T09:34:58.098Z,27.40
2018-07-10T09:37:33.232Z,27.50
2018-07-10T09:40:07.520Z,27.70
2018-07-10T09:42:38.040Z,27.90
2018-07-10T09:45:07.100Z,28.00
2018-07-10T09:47:36.141Z,28.20
2018-07-10T09:50:05.296Z,28.40
2018-07-10T09:52:34.287Z,28.50
2018-07-10T09:55:03.514Z,28.60
2018-07-10T10:00:02.829Z,28.70
2018-07-10T10:02:35.120Z,28.80
2018-07-10T10:05:05.781Z,29.10
2018-07-10T10:07:34.839Z,29.20
2018-07-10T10:10:04.733Z,29.40
2018-07-10T10:15:02.941Z,29.80
2018-07-10T10:17:32.171Z,29.80
2018-07-10T10:20:01.497Z,29.80
2018-07-10T10:22:32.264Z,29.80
2018-07-10T10:25:02.723Z,30.00
2018-07-10T10:27:31.914Z,30.20
2018-07-10T10:30:01.661Z,30.20
2018-07-10T10:32:30.891Z,29.80
2018-07-10T10:37:29.004Z,29.30
2018-07-10T10:39:58.306Z,28.90
2018-07-10T10:42:27.794Z,28.50
2018-07-10T10:47:26.560Z,28.10
2018-07-10T10:49:57.639Z,27.90
2018-07-10T10:52:26.680Z,27.80
2018-07-10T10:54:55.811Z,27.70
2018-07-10T10:57:26.333Z,27.60
2018-07-10T10:59:55.392Z,27.50
2018-07-10T11:02:24.456Z,27.50
2018-07-10T11:04:53.954Z,27.50
2018-07-10T11:07:23.021Z,27.50
2018-07-10T11:09:52.098Z,27.40
2018-07-10T11:12:21.560Z,27.50
2018-07-10T11:14:50.568Z,27.30
2018-07-10T11:17:28.853Z,27.30
2018-07-10T11:21:10.192Z,27.30
2018-07-10T11:23:56.056Z,27.20
2018-07-10T11:26:33.013Z,27.20
2018-07-10T11:29:03.034Z,27.10
2018-07-10T11:31:32.154Z,27.00
2018-07-10T11:34:01.118Z,26.90
2018-07-10T11:36:30.206Z,27.00
2018-07-10T11:41:32.893Z,26.80
2018-07-10T11:44:06.909Z,26.70
2018-07-10T11:46:36.267Z,26.60
2018-07-10T11:49:05.355Z,26.50
2018-07-10T11:51:34.402Z,26.50
2018-07-10T11:54:03.857Z,26.40
2018-07-10T11:56:32.920Z,26.40
2018-07-10T11:59:02.531Z,26.60
2018-07-10T12:01:32.704Z,26.80
2018-07-10T12:04:01.728Z,26.90
2018-07-10T12:06:31.176Z,27.10
2018-07-10T12:09:01.193Z,27.50
2018-07-10T12:11:31.904Z,27.60
2018-07-10T12:14:00.920Z,27.90
2018-07-10T12:16:29.927Z,28.30
2018-07-10T12:18:59.056Z,28.80
2018-07-10T12:21:28.109Z,29.20
2018-07-10T12:23:57.159Z,29.70
2018-07-10T12:26:26.231Z,30.20
2018-07-10T12:28:55.313Z,30.50
2018-07-10T12:31:24.593Z,30.80
2018-07-10T12:33:53.597Z,31.40
2018-07-10T12:36:22.630Z,31.40
2018-07-10T12:38:51.626Z,31.40
2018-07-10T12:41:20.608Z,31.70
2018-07-10T12:43:50.205Z,31.90
2018-07-10T12:46:19.159Z,32.00
2018-07-10T12:48:48.204Z,32.10
2018-07-10T12:51:17.274Z,32.00
2018-07-10T12:53:46.323Z,31.80
2018-07-10T12:56:16.299Z,31.50
2018-07-10T12:58:45.447Z,31.40
2018-07-10T13:01:14.532Z,31.10
2018-07-10T13:03:44.084Z,30.80
2018-07-10T13:06:13.295Z,30.50
2018-07-10T13:08:42.386Z,30.30
2018-07-10T13:11:11.476Z,30.10
2018-07-10T13:13:40.732Z,29.90
2018-07-10T13:16:09.772Z,29.70
2018-07-10T13:18:39.068Z,29.50
2018-07-10T13:21:08.211Z,29.20
2018-07-10T13:23:38.978Z,29.00
2018-07-10T13:26:08.050Z,28.90
2018-07-10T13:28:37.172Z,28.70
2018-07-10T13:31:06.166Z,28.70
2018-07-10T13:33:36.057Z,28.60
2018-07-10T13:36:05.148Z,28.60
2018-07-10T13:38:34.164Z,28.70
2018-07-10T13:41:03.279Z,28.80
2018-07-10T13:43:32.308Z,29.00
2018-07-10T13:46:01.300Z,29.10
2018-07-10T13:50:58.964Z,29.50
2018-07-10T13:55:56.787Z,29.70
2018-07-10T13:58:29.188Z,29.90
2018-07-10T14:01:03.681Z,29.90
2018-07-10T14:03:32.725Z,30.40
2018-07-10T14:06:01.776Z,30.70
2018-07-10T14:08:31.276Z,30.70
2018-07-10T14:11:00.652Z,30.40
2018-07-10T14:13:29.801Z,30.20
2018-07-10T14:15:58.992Z,30.10
2018-07-10T14:18:28.501Z,29.80
2018-07-10T14:21:00.499Z,29.50
2018-07-10T14:23:29.560Z,29.30
2018-07-10T14:25:58.528Z,29.00
2018-07-10T14:28:27.627Z,28.90
2018-07-10T14:30:56.557Z,28.70
2018-07-10T14:33:25.575Z,28.60
2018-07-10T14:38:25.755Z,28.40
2018-07-10T14:40:55.163Z,28.30
2018-07-10T14:43:27.519Z,28.30
2018-07-10T14:45:58.236Z,28.20
2018-07-10T14:48:30.448Z,28.10
2018-07-10T14:50:59.872Z,28.00
2018-07-10T14:53:28.840Z,27.90
2018-07-10T14:55:57.909Z,27.80
2018-07-10T14:58:26.968Z,27.80
2018-07-10T15:03:24.410Z,27.70
2018-07-10T15:05:53.376Z,27.70
2018-07-10T15:08:22.425Z,27.60
2018-07-10T15:10:51.437Z,27.50
2018-07-10T15:13:21.331Z,27.40
2018-07-10T15:18:31.460Z,27.10
2018-07-10T15:21:00.441Z,27.10
2018-07-10T15:23:29.628Z,27.00
2018-07-10T15:25:58.516Z,27.00
2018-07-10T15:28:27.622Z,27.00
2018-07-10T15:30:56.586Z,27.00
2018-07-10T15:33:25.636Z,26.90
2018-07-10T15:35:54.900Z,26.90
2018-07-10T15:38:24.244Z,26.80
2018-07-10T15:40:53.432Z,26.70
2018-07-10T15:43:25.148Z,26.70
2018-07-10T15:45:54.181Z,26.50
2018-07-10T15:48:23.089Z,26.40
2018-07-10T15:50:53.588Z,26.20
2018-07-10T15:53:22.616Z,26.10
2018-07-10T15:55:51.635Z,25.90
2018-07-10T15:58:20.575Z,25.80
2018-07-10T16:00:49.560Z,25.40
2018-07-10T16:03:18.768Z,24.70
2018-07-10T16:05:47.936Z,23.80
2018-07-10T16:08:18.316Z,23.20
2018-07-10T16:10:51.813Z,22.70
2018-07-10T16:13:22.321Z,22.40
2018-07-10T16:15:54.581Z,22.20
2018-07-10T16:18:25.342Z,22.00
2018-07-10T16:20:56.600Z,22.00
2018-07-10T16:23:25.620Z,22.00
2018-07-10T16:26:03.283Z,21.90
2018-07-10T16:28:32.092Z,21.80
2018-07-10T16:33:32.578Z,21.90
2018-07-10T16:36:03.804Z,21.90
2018-07-10T16:38:33.151Z,21.90
2018-07-10T16:41:07.596Z,22.00
2018-07-10T16:43:36.608Z,21.90
2018-07-10T16:46:06.164Z,21.80
2018-07-10T16:48:43.040Z,21.70
2018-07-10T16:51:21.970Z,21.70
2018-07-10T16:53:55.900Z,21.70
2018-07-10T16:56:25.132Z,21.70
2018-07-10T16:58:55.496Z,21.60
2018-07-10T17:01:26.443Z,21.70
2018-07-10T17:03:55.772Z,21.70
2018-07-10T17:06:25.691Z,21.60
2018-07-10T17:11:23.253Z,21.60
2018-07-10T17:13:52.163Z,21.60
2018-07-10T17:21:23.505Z,21.10
2018-07-10T17:23:54.292Z,20.80
2018-07-10T17:26:23.325Z,20.70
2018-07-10T17:28:53.406Z,20.70
2018-07-10T17:33:51.004Z,20.70
2018-07-10T17:36:19.975Z,20.70
2018-07-10T17:38:49.480Z,20.60
2018-07-10T17:41:18.529Z,20.60
2018-07-10T17:43:47.588Z,20.50
2018-07-10T17:46:16.580Z,20.50
2018-07-10T17:48:45.532Z,20.50
2018-07-10T17:51:14.585Z,20.40
2018-07-10T17:53:43.613Z,20.40
2018-07-10T17:56:13.587Z,20.40
2018-07-10T17:58:42.582Z,20.40
2018-07-10T18:01:11.604Z,20.40
2018-07-10T18:03:40.576Z,20.40
2018-07-10T18:06:09.667Z,20.40
2018-07-10T18:08:38.707Z,20.50
2018-07-10T18:13:36.445Z,20.50
2018-07-10T18:16:05.718Z,20.40
2018-07-10T18:18:35.153Z,20.40
2018-07-10T18:23:32.681Z,20.50
2018-07-10T18:28:30.325Z,20.30
2018-07-10T18:30:59.325Z,20.30
2018-07-10T18:33:28.364Z,20.30
2018-07-10T18:35:57.691Z,20.30
2018-07-10T18:38:26.828Z,20.30
2018-07-10T18:40:57.938Z,20.20
2018-07-10T18:43:27.901Z,20.20
2018-07-10T18:45:57.180Z,20.20
2018-07-10T18:50:57.262Z,20.10
2018-07-10T18:53:27.394Z,20.10
2018-07-10T18:55:56.721Z,20.10
2018-07-10T18:58:32.888Z,20.00
2018-07-10T19:01:13.047Z,20.00
2018-07-10T19:03:45.290Z,20.00
2018-07-10T19:06:15.173Z,19.90
2018-07-10T19:08:47.083Z,19.90
2018-07-10T19:11:22.460Z,19.90
2018-07-10T19:13:52.133Z,19.90
2018-07-10T19:16:22.381Z,19.90
2018-07-10T19:21:28.404Z,19.80
2018-07-10T19:24:03.077Z,19.80
2018-07-10T19:26:32.209Z,19.80
2018-07-10T19:29:09.028Z,19.70
2018-07-10T19:31:38.080Z,19.70
2018-07-10T19:34:07.141Z,19.60
2018-07-10T19:39:07.003Z,19.60
2018-07-10T19:41:36.092Z,19.50
2018-07-10T19:44:05.280Z,19.40
2018-07-10T19:46:35.518Z,19.40
2018-07-10T19:49:05.893Z,19.30
2018-07-10T19:51:34.921Z,19.30
2018-07-10T19:54:14.023Z,19.30
2018-07-10T19:56:43.156Z,19.30
2018-07-10T19:59:14.192Z,19.30
2018-07-10T20:01:59.976Z,19.20
2018-07-10T20:05:02.390Z,19.30
2018-07-10T20:07:35.741Z,19.30
2018-07-10T20:10:12.923Z,19.30
2018-07-10T20:12:49.096Z,19.20
2018-07-10T20:15:25.144Z,19.10
2018-07-10T20:18:04.142Z,19.20
2018-07-10T20:20:35.372Z,19.20
2018-07-10T20:23:43.222Z,19.20
2018-07-10T20:28:53.698Z,19.20
2018-07-10T20:34:32.174Z,19.10
2018-07-10T20:37:01.246Z,19.10
2018-07-10T20:39:34.742Z,19.00
2018-07-10T20:42:03.971Z,18.90
2018-07-10T20:44:37.879Z,18.90
2018-07-10T20:47:06.960Z,18.90
2018-07-10T20:49:46.614Z,18.80
2018-07-10T20:52:19.533Z,18.70
2018-07-10T20:54:59.516Z,18.60
2018-07-10T21:00:10.712Z,18.40
2018-07-10T21:04:55.253Z,18.40
2018-07-10T21:07:28.476Z,18.40
2018-07-10T21:10:07.176Z,18.40
2018-07-10T21:12:48.180Z,18.40
2018-07-10T21:15:29.440Z,18.40
2018-07-10T21:20:41.173Z,18.40
2018-07-10T21:24:22.376Z,18.40
2018-07-10T21:27:02.141Z,18.30
2018-07-10T21:30:39.700Z,18.30
2018-07-10T21:34:19.253Z,18.20
2018-07-10T21:39:04.823Z,18.20
2018-07-10T21:47:16.869Z,18.00
2018-07-10T21:49:51.053Z,18.00
2018-07-10T21:52:20.096Z,17.90
2018-07-10T21:54:49.213Z,17.90
2018-07-10T21:57:19.535Z,17.80
2018-07-10T21:59:55.315Z,17.80
2018-07-10T22:02:24.629Z,17.70
2018-07-10T22:04:55.460Z,17.70
2018-07-10T22:07:26.438Z,17.60
2018-07-10T22:09:58.568Z,17.60
2018-07-10T22:12:27.616Z,17.70
2018-07-10T22:14:56.560Z,17.60
2018-07-10T22:17:26.688Z,17.60
2018-07-10T22:22:32.347Z,17.70
2018-07-10T22:27:31.109Z,17.70
2018-07-10T22:30:05.816Z,17.60
2018-07-10T22:32:43.718Z,17.60
2018-07-10T22:35:13.505Z,17.50
2018-07-10T22:37:42.612Z,17.50
2018-07-10T22:40:11.936Z,17.50
2018-07-10T22:42:40.816Z,17.50
2018-07-10T22:45:09.848Z,17.50
2018-07-10T22:47:40.187Z,17.50
2018-07-10T22:50:18.616Z,17.40
2018-07-10T22:53:00.888Z,17.40
2018-07-10T22:55:31.655Z,17.40
2018-07-10T22:58:03.548Z,17.40
2018-07-10T23:00:34.387Z,17.50
2018-07-10T23:03:15.995Z,17.50
2018-07-10T23:05:45.948Z,17.50
2018-07-10T23:08:15.484Z,17.60
2018-07-10T23:10:45.058Z,17.60
2018-07-10T23:13:14.099Z,17.70
2018-07-10T23:15:43.228Z,17.60
2018-07-10T23:18:12.176Z,17.60
2018-07-10T23:20:41.152Z,17.50
2018-07-10T23:25:38.895Z,17.50
2018-07-10T23:28:07.928Z,17.40
2018-07-10T23:30:40.051Z,17.40
2018-07-10T23:33:17.608Z,17.40
2018-07-10T23:35:51.250Z,17.40
2018-07-10T23:38:32.979Z,17.30
2018-07-10T23:41:02.888Z,17.30
2018-07-10T23:46:15.476Z,17.30
2018-07-10T23:48:44.732Z,17.20
2018-07-10T23:51:13.672Z,17.20
2018-07-10T23:53:50.680Z,17.20
2018-07-10T23:56:20.388Z,17.20
2018-07-10T23:58:49.792Z,17.20
